sensor_id;sensor_type;location;lat;lon;timestamp;P1;durP1;ratioP1;P2;durP2;ratioP2
84711;SDS011;74937;44.534;18.684;2024-03-02T00:00:04;70.00;;;33.00;;
84711;SDS011;74937;44.534;18.684;2024-03-02T00:02:40;75.72;;;33.70;;
84711;SDS011;74937;44.534;18.684;2024-03-02T00:05:07;74.53;;;32.53;;
84711;SDS011;74937;44.534;18.684;2024-03-02T00:07:33;66.88;;;32.20;;
84711;SDS011;74937;44.534;18.684;2024-03-02T00:09:59;71.63;;;32.08;;
84711;SDS011;74937;44.534;18.684;2024-03-02T00:12:25;79.47;;;36.33;;
84711;SDS011;74937;44.534;18.684;2024-03-02T00:14:51;78.85;;;34.28;;
84711;SDS011;74937;44.534;18.684;2024-03-02T00:17:24;80.63;;;36.53;;
84711;SDS011;74937;44.534;18.684;2024-03-02T00:19:53;76.30;;;34.17;;
84711;SDS011;74937;44.534;18.684;2024-03-02T00:22:19;67.68;;;32.58;;
84711;SDS011;74937;44.534;18.684;2024-03-02T00:24:44;67.68;;;30.25;;
84711;SDS011;74937;44.534;18.684;2024-03-02T00:27:10;78.07;;;34.50;;
84711;SDS011;74937;44.534;18.684;2024-03-02T00:29:40;89.93;;;38.45;;
84711;SDS011;74937;44.534;18.684;2024-03-02T00:32:10;85.45;;;37.83;;
84711;SDS011;74937;44.534;18.684;2024-03-02T00:34:38;93.35;;;37.15;;
84711;SDS011;74937;44.534;18.684;2024-03-02T00:37:04;69.68;;;31.02;;
84711;SDS011;74937;44.534;18.684;2024-03-02T00:39:30;71.00;;;32.75;;
84711;SDS011;74937;44.534;18.684;2024-03-02T00:41:56;63.75;;;31.08;;
84711;SDS011;74937;44.534;18.684;2024-03-02T00:44:22;77.00;;;32.03;;
84711;SDS011;74937;44.534;18.684;2024-03-02T00:46:51;67.13;;;30.90;;
84711;SDS011;74937;44.534;18.684;2024-03-02T00:49:22;65.57;;;29.60;;
84711;SDS011;74937;44.534;18.684;2024-03-02T00:51:52;75.55;;;32.72;;
84711;SDS011;74937;44.534;18.684;2024-03-02T00:54:19;73.22;;;33.10;;
84711;SDS011;74937;44.534;18.684;2024-03-02T00:56:46;77.53;;;32.67;;
84711;SDS011;74937;44.534;18.684;2024-03-02T00:59:13;70.45;;;32.45;;
84711;SDS011;74937;44.534;18.684;2024-03-02T01:01:39;72.75;;;32.25;;
84711;SDS011;74937;44.534;18.684;2024-03-02T01:04:04;69.00;;;31.77;;
84711;SDS011;74937;44.534;18.684;2024-03-02T01:06:30;64.45;;;27.85;;
84711;SDS011;74937;44.534;18.684;2024-03-02T01:08:56;60.72;;;29.35;;
84711;SDS011;74937;44.534;18.684;2024-03-02T01:11:22;65.85;;;29.50;;
84711;SDS011;74937;44.534;18.684;2024-03-02T01:13:47;58.20;;;25.98;;
84711;SDS011;74937;44.534;18.684;2024-03-02T01:16:13;56.45;;;26.02;;
84711;SDS011;74937;44.534;18.684;2024-03-02T01:18:41;59.28;;;27.83;;
84711;SDS011;74937;44.534;18.684;2024-03-02T01:21:07;67.18;;;28.85;;
84711;SDS011;74937;44.534;18.684;2024-03-02T01:23:33;64.40;;;27.35;;
84711;SDS011;74937;44.534;18.684;2024-03-02T01:25:58;65.60;;;30.88;;
84711;SDS011;74937;44.534;18.684;2024-03-02T01:28:24;80.85;;;38.25;;
84711;SDS011;74937;44.534;18.684;2024-03-02T01:30:50;82.40;;;36.40;;
84711;SDS011;74937;44.534;18.684;2024-03-02T01:33:19;85.75;;;38.13;;
84711;SDS011;74937;44.534;18.684;2024-03-02T01:35:45;84.72;;;37.75;;
84711;SDS011;74937;44.534;18.684;2024-03-02T01:38:11;76.07;;;33.58;;
84711;SDS011;74937;44.534;18.684;2024-03-02T01:40:37;77.10;;;32.72;;
84711;SDS011;74937;44.534;18.684;2024-03-02T01:45:33;60.10;;;29.20;;
84711;SDS011;74937;44.534;18.684;2024-03-02T01:48:00;58.00;;;26.40;;
84711;SDS011;74937;44.534;18.684;2024-03-02T01:50:27;57.95;;;25.42;;
84711;SDS011;74937;44.534;18.684;2024-03-02T01:52:54;55.90;;;28.10;;
84711;SDS011;74937;44.534;18.684;2024-03-02T01:55:23;63.80;;;28.75;;
84711;SDS011;74937;44.534;18.684;2024-03-02T01:57:49;67.00;;;28.45;;
84711;SDS011;74937;44.534;18.684;2024-03-02T02:00:19;65.82;;;28.80;;
84711;SDS011;74937;44.534;18.684;2024-03-02T02:02:45;71.53;;;31.58;;
84711;SDS011;74937;44.534;18.684;2024-03-02T02:05:12;69.18;;;29.60;;
84711;SDS011;74937;44.534;18.684;2024-03-02T02:07:40;65.25;;;30.67;;
84711;SDS011;74937;44.534;18.684;2024-03-02T02:10:07;74.40;;;32.75;;
84711;SDS011;74937;44.534;18.684;2024-03-02T02:12:33;57.67;;;26.77;;
84711;SDS011;74937;44.534;18.684;2024-03-02T02:14:58;50.13;;;23.48;;
84711;SDS011;74937;44.534;18.684;2024-03-02T02:17:24;49.28;;;24.02;;
84711;SDS011;74937;44.534;18.684;2024-03-02T02:19:50;44.38;;;21.13;;
84711;SDS011;74937;44.534;18.684;2024-03-02T02:22:15;50.70;;;21.73;;
84711;SDS011;74937;44.534;18.684;2024-03-02T02:24:41;48.47;;;22.17;;
84711;SDS011;74937;44.534;18.684;2024-03-02T02:27:10;47.28;;;20.40;;
84711;SDS011;74937;44.534;18.684;2024-03-02T02:29:36;35.65;;;18.75;;
84711;SDS011;74937;44.534;18.684;2024-03-02T02:32:02;43.83;;;20.25;;
84711;SDS011;74937;44.534;18.684;2024-03-02T02:34:27;45.78;;;20.27;;
84711;SDS011;74937;44.534;18.684;2024-03-02T02:36:53;55.00;;;24.17;;
84711;SDS011;74937;44.534;18.684;2024-03-02T02:39:20;66.45;;;29.27;;
84711;SDS011;74937;44.534;18.684;2024-03-02T02:41:49;59.85;;;27.65;;
84711;SDS011;74937;44.534;18.684;2024-03-02T02:44:15;49.40;;;22.30;;
84711;SDS011;74937;44.534;18.684;2024-03-02T02:46:41;51.95;;;22.95;;
84711;SDS011;74937;44.534;18.684;2024-03-02T02:49:06;52.90;;;23.00;;
84711;SDS011;74937;44.534;18.684;2024-03-02T02:51:32;43.33;;;22.02;;
84711;SDS011;74937;44.534;18.684;2024-03-02T02:53:58;53.00;;;22.55;;
84711;SDS011;74937;44.534;18.684;2024-03-02T02:56:23;42.58;;;20.98;;
84711;SDS011;74937;44.534;18.684;2024-03-02T02:58:49;53.90;;;23.15;;
84711;SDS011;74937;44.534;18.684;2024-03-02T03:01:15;53.72;;;25.50;;
84711;SDS011;74937;44.534;18.684;2024-03-02T03:03:43;54.67;;;24.50;;
84711;SDS011;74937;44.534;18.684;2024-03-02T03:06:09;50.45;;;23.95;;
84711;SDS011;74937;44.534;18.684;2024-03-02T03:08:35;48.58;;;23.33;;
84711;SDS011;74937;44.534;18.684;2024-03-02T03:11:02;47.08;;;22.80;;
84711;SDS011;74937;44.534;18.684;2024-03-02T03:13:27;49.45;;;21.63;;
84711;SDS011;74937;44.534;18.684;2024-03-02T03:15:53;47.03;;;21.80;;
84711;SDS011;74937;44.534;18.684;2024-03-02T03:18:19;43.83;;;20.50;;
84711;SDS011;74937;44.534;18.684;2024-03-02T03:20:44;43.33;;;19.05;;
84711;SDS011;74937;44.534;18.684;2024-03-02T03:23:10;39.97;;;19.20;;
84711;SDS011;74937;44.534;18.684;2024-03-02T03:25:58;43.38;;;21.00;;
84711;SDS011;74937;44.534;18.684;2024-03-02T03:28:24;48.83;;;20.70;;
84711;SDS011;74937;44.534;18.684;2024-03-02T03:30:49;45.08;;;21.50;;
84711;SDS011;74937;44.534;18.684;2024-03-02T03:33:15;44.53;;;20.98;;
84711;SDS011;74937;44.534;18.684;2024-03-02T03:35:41;48.08;;;21.65;;
84711;SDS011;74937;44.534;18.684;2024-03-02T03:38:06;49.50;;;22.63;;
84711;SDS011;74937;44.534;18.684;2024-03-02T03:40:32;46.95;;;22.48;;
84711;SDS011;74937;44.534;18.684;2024-03-02T03:42:58;39.63;;;19.10;;
84711;SDS011;74937;44.534;18.684;2024-03-02T03:45:25;45.03;;;19.85;;
84711;SDS011;74937;44.534;18.684;2024-03-02T03:47:52;44.20;;;20.35;;
84711;SDS011;74937;44.534;18.684;2024-03-02T03:50:18;43.33;;;20.35;;
84711;SDS011;74937;44.534;18.684;2024-03-02T03:55:10;49.63;;;21.42;;
84711;SDS011;74937;44.534;18.684;2024-03-02T03:57:36;44.10;;;20.25;;
84711;SDS011;74937;44.534;18.684;2024-03-02T04:00:02;55.90;;;22.88;;
84711;SDS011;74937;44.534;18.684;2024-03-02T04:02:37;46.60;;;19.95;;
84711;SDS011;74937;44.534;18.684;2024-03-02T04:05:03;40.28;;;17.85;;
84711;SDS011;74937;44.534;18.684;2024-03-02T04:07:34;40.35;;;15.57;;
84711;SDS011;74937;44.534;18.684;2024-03-02T04:10:06;31.77;;;14.60;;
84711;SDS011;74937;44.534;18.684;2024-03-02T04:12:33;27.80;;;12.88;;
84711;SDS011;74937;44.534;18.684;2024-03-02T04:15:00;28.40;;;13.50;;
84711;SDS011;74937;44.534;18.684;2024-03-02T04:17:27;28.73;;;14.75;;
84711;SDS011;74937;44.534;18.684;2024-03-02T04:19:52;34.17;;;14.73;;
84711;SDS011;74937;44.534;18.684;2024-03-02T04:22:18;30.88;;;15.20;;
84711;SDS011;74937;44.534;18.684;2024-03-02T04:24:43;34.05;;;14.27;;
84711;SDS011;74937;44.534;18.684;2024-03-02T04:27:09;37.58;;;16.77;;
84711;SDS011;74937;44.534;18.684;2024-03-02T04:29:35;38.67;;;17.40;;
84711;SDS011;74937;44.534;18.684;2024-03-02T04:32:00;41.15;;;19.08;;
84711;SDS011;74937;44.534;18.684;2024-03-02T04:34:26;39.83;;;18.85;;
84711;SDS011;74937;44.534;18.684;2024-03-02T04:36:51;35.40;;;17.42;;
84711;SDS011;74937;44.534;18.684;2024-03-02T04:39:17;33.40;;;16.10;;
84711;SDS011;74937;44.534;18.684;2024-03-02T04:41:43;34.83;;;15.75;;
84711;SDS011;74937;44.534;18.684;2024-03-02T04:44:08;35.65;;;16.20;;
84711;SDS011;74937;44.534;18.684;2024-03-02T04:46:34;39.95;;;18.33;;
84711;SDS011;74937;44.534;18.684;2024-03-02T04:49:01;39.97;;;18.23;;
84711;SDS011;74937;44.534;18.684;2024-03-02T04:53:52;42.47;;;20.88;;
84711;SDS011;74937;44.534;18.684;2024-03-02T04:56:17;45.72;;;19.58;;
84711;SDS011;74937;44.534;18.684;2024-03-02T04:59:01;49.92;;;22.95;;
84711;SDS011;74937;44.534;18.684;2024-03-02T05:01:27;41.40;;;19.27;;
84711;SDS011;74937;44.534;18.684;2024-03-02T05:03:53;38.40;;;17.50;;
84711;SDS011;74937;44.534;18.684;2024-03-02T05:06:21;41.03;;;19.02;;
84711;SDS011;74937;44.534;18.684;2024-03-02T05:08:48;43.63;;;21.08;;
84711;SDS011;74937;44.534;18.684;2024-03-02T05:11:14;42.92;;;20.27;;
84711;SDS011;74937;44.534;18.684;2024-03-02T05:13:58;54.55;;;24.40;;
84711;SDS011;74937;44.534;18.684;2024-03-02T05:16:24;52.08;;;25.13;;
84711;SDS011;74937;44.534;18.684;2024-03-02T05:18:49;56.47;;;27.25;;
84711;SDS011;74937;44.534;18.684;2024-03-02T05:21:15;58.60;;;27.45;;
84711;SDS011;74937;44.534;18.684;2024-03-02T05:23:41;56.65;;;27.08;;
84711;SDS011;74937;44.534;18.684;2024-03-02T05:26:06;55.78;;;25.52;;
84711;SDS011;74937;44.534;18.684;2024-03-02T05:28:32;60.13;;;25.52;;
84711;SDS011;74937;44.534;18.684;2024-03-02T05:30:57;58.47;;;24.95;;
84711;SDS011;74937;44.534;18.684;2024-03-02T05:33:23;64.70;;;25.02;;
84711;SDS011;74937;44.534;18.684;2024-03-02T05:35:49;56.60;;;23.13;;
84711;SDS011;74937;44.534;18.684;2024-03-02T05:38:17;51.90;;;22.17;;
84711;SDS011;74937;44.534;18.684;2024-03-02T05:40:43;47.92;;;20.55;;
84711;SDS011;74937;44.534;18.684;2024-03-02T05:43:08;35.38;;;17.52;;
84711;SDS011;74937;44.534;18.684;2024-03-02T05:45:34;30.98;;;14.30;;
84711;SDS011;74937;44.534;18.684;2024-03-02T05:48:00;32.22;;;14.73;;
84711;SDS011;74937;44.534;18.684;2024-03-02T05:50:26;35.38;;;15.52;;
84711;SDS011;74937;44.534;18.684;2024-03-02T05:52:52;41.38;;;17.77;;
84711;SDS011;74937;44.534;18.684;2024-03-02T05:55:18;34.17;;;15.80;;
84711;SDS011;74937;44.534;18.684;2024-03-02T05:57:43;34.25;;;15.18;;
84711;SDS011;74937;44.534;18.684;2024-03-02T06:00:09;37.50;;;15.93;;
84711;SDS011;74937;44.534;18.684;2024-03-02T06:02:39;34.45;;;16.27;;
84711;SDS011;74937;44.534;18.684;2024-03-02T06:05:05;36.92;;;18.83;;
84711;SDS011;74937;44.534;18.684;2024-03-02T06:07:32;40.58;;;17.10;;
84711;SDS011;74937;44.534;18.684;2024-03-02T06:09:58;45.38;;;19.05;;
84711;SDS011;74937;44.534;18.684;2024-03-02T06:12:24;40.42;;;18.85;;
84711;SDS011;74937;44.534;18.684;2024-03-02T06:14:49;41.60;;;19.55;;
84711;SDS011;74937;44.534;18.684;2024-03-02T06:17:15;39.13;;;19.38;;
84711;SDS011;74937;44.534;18.684;2024-03-02T06:19:40;42.55;;;18.83;;
84711;SDS011;74937;44.534;18.684;2024-03-02T06:22:06;36.67;;;18.55;;
84711;SDS011;74937;44.534;18.684;2024-03-02T06:24:35;38.72;;;18.50;;
84711;SDS011;74937;44.534;18.684;2024-03-02T06:27:01;35.78;;;17.73;;
84711;SDS011;74937;44.534;18.684;2024-03-02T06:29:27;32.80;;;18.73;;
84711;SDS011;74937;44.534;18.684;2024-03-02T06:31:53;34.10;;;17.05;;
84711;SDS011;74937;44.534;18.684;2024-03-02T06:34:18;31.75;;;17.13;;
84711;SDS011;74937;44.534;18.684;2024-03-02T06:36:44;42.25;;;19.65;;
84711;SDS011;74937;44.534;18.684;2024-03-02T06:39:10;83.88;;;41.22;;
84711;SDS011;74937;44.534;18.684;2024-03-02T06:41:37;53.30;;;25.60;;
84711;SDS011;74937;44.534;18.684;2024-03-02T06:44:03;62.42;;;30.42;;
84711;SDS011;74937;44.534;18.684;2024-03-02T06:46:29;69.95;;;30.27;;
84711;SDS011;74937;44.534;18.684;2024-03-02T06:48:55;63.90;;;30.25;;
84711;SDS011;74937;44.534;18.684;2024-03-02T06:51:21;49.00;;;25.65;;
84711;SDS011;74937;44.534;18.684;2024-03-02T06:53:47;35.25;;;17.08;;
84711;SDS011;74937;44.534;18.684;2024-03-02T06:56:12;28.08;;;15.35;;
84711;SDS011;74937;44.534;18.684;2024-03-02T06:58:38;33.50;;;18.20;;
84711;SDS011;74937;44.534;18.684;2024-03-02T07:01:03;35.28;;;16.42;;
84711;SDS011;74937;44.534;18.684;2024-03-02T07:03:30;38.25;;;17.17;;
84711;SDS011;74937;44.534;18.684;2024-03-02T07:05:55;36.28;;;18.75;;
84711;SDS011;74937;44.534;18.684;2024-03-02T07:08:22;35.80;;;18.77;;
84711;SDS011;74937;44.534;18.684;2024-03-02T07:10:47;47.35;;;21.30;;
84711;SDS011;74937;44.534;18.684;2024-03-02T07:13:13;42.55;;;21.38;;
84711;SDS011;74937;44.534;18.684;2024-03-02T07:15:39;42.45;;;22.08;;
84711;SDS011;74937;44.534;18.684;2024-03-02T07:18:10;47.30;;;20.85;;
84711;SDS011;74937;44.534;18.684;2024-03-02T07:20:36;48.10;;;22.13;;
84711;SDS011;74937;44.534;18.684;2024-03-02T07:23:04;44.28;;;20.92;;
84711;SDS011;74937;44.534;18.684;2024-03-02T07:25:31;38.30;;;20.73;;
84711;SDS011;74937;44.534;18.684;2024-03-02T07:27:56;32.92;;;16.85;;
84711;SDS011;74937;44.534;18.684;2024-03-02T07:30:22;28.83;;;15.93;;
84711;SDS011;74937;44.534;18.684;2024-03-02T07:32:49;46.83;;;21.77;;
84711;SDS011;74937;44.534;18.684;2024-03-02T07:35:15;33.55;;;17.35;;
84711;SDS011;74937;44.534;18.684;2024-03-02T07:37:41;32.42;;;18.40;;
84711;SDS011;74937;44.534;18.684;2024-03-02T07:40:08;35.53;;;17.25;;
84711;SDS011;74937;44.534;18.684;2024-03-02T07:42:37;34.72;;;17.83;;
84711;SDS011;74937;44.534;18.684;2024-03-02T07:45:04;31.58;;;16.15;;
84711;SDS011;74937;44.534;18.684;2024-03-02T07:47:30;25.98;;;14.18;;
84711;SDS011;74937;44.534;18.684;2024-03-02T07:49:55;27.10;;;16.08;;
84711;SDS011;74937;44.534;18.684;2024-03-02T07:52:21;36.15;;;17.23;;
84711;SDS011;74937;44.534;18.684;2024-03-02T07:54:47;29.85;;;16.52;;
84711;SDS011;74937;44.534;18.684;2024-03-02T07:57:12;30.95;;;16.23;;
84711;SDS011;74937;44.534;18.684;2024-03-02T07:59:38;35.10;;;18.02;;
84711;SDS011;74937;44.534;18.684;2024-03-02T08:02:04;47.88;;;24.85;;
84711;SDS011;74937;44.534;18.684;2024-03-02T08:04:30;37.70;;;19.45;;
84711;SDS011;74937;44.534;18.684;2024-03-02T08:06:55;35.92;;;16.17;;
84711;SDS011;74937;44.534;18.684;2024-03-02T08:09:21;53.88;;;31.20;;
84711;SDS011;74937;44.534;18.684;2024-03-02T08:11:47;38.72;;;21.30;;
84711;SDS011;74937;44.534;18.684;2024-03-02T08:14:12;43.00;;;21.77;;
84711;SDS011;74937;44.534;18.684;2024-03-02T08:16:38;35.65;;;19.13;;
84711;SDS011;74937;44.534;18.684;2024-03-02T08:19:03;35.17;;;18.50;;
84711;SDS011;74937;44.534;18.684;2024-03-02T08:21:29;28.88;;;15.45;;
84711;SDS011;74937;44.534;18.684;2024-03-02T08:24:00;29.83;;;16.13;;
84711;SDS011;74937;44.534;18.684;2024-03-02T08:26:27;30.50;;;17.42;;
84711;SDS011;74937;44.534;18.684;2024-03-02T08:28:55;32.60;;;16.25;;
84711;SDS011;74937;44.534;18.684;2024-03-02T08:33:46;27.00;;;15.95;;
84711;SDS011;74937;44.534;18.684;2024-03-02T08:36:12;30.88;;;16.63;;
84711;SDS011;74937;44.534;18.684;2024-03-02T08:38:37;31.13;;;16.40;;
84711;SDS011;74937;44.534;18.684;2024-03-02T08:43:30;30.90;;;15.80;;
84711;SDS011;74937;44.534;18.684;2024-03-02T08:45:56;33.88;;;17.45;;
84711;SDS011;74937;44.534;18.684;2024-03-02T08:48:21;36.55;;;17.98;;
84711;SDS011;74937;44.534;18.684;2024-03-02T08:50:47;33.60;;;16.92;;
84711;SDS011;74937;44.534;18.684;2024-03-02T08:53:13;31.00;;;17.08;;
84711;SDS011;74937;44.534;18.684;2024-03-02T08:55:38;28.45;;;15.18;;
84711;SDS011;74937;44.534;18.684;2024-03-02T08:58:04;24.83;;;13.90;;
84711;SDS011;74937;44.534;18.684;2024-03-02T09:00:29;24.83;;;12.98;;
84711;SDS011;74937;44.534;18.684;2024-03-02T09:02:55;19.35;;;11.20;;
84711;SDS011;74937;44.534;18.684;2024-03-02T09:05:21;17.08;;;10.48;;
84711;SDS011;74937;44.534;18.684;2024-03-02T09:07:46;21.77;;;11.52;;
84711;SDS011;74937;44.534;18.684;2024-03-02T09:10:12;18.92;;;9.95;;
84711;SDS011;74937;44.534;18.684;2024-03-02T09:12:38;15.80;;;8.55;;
84711;SDS011;74937;44.534;18.684;2024-03-02T09:15:04;10.63;;;6.63;;
84711;SDS011;74937;44.534;18.684;2024-03-02T09:17:33;19.80;;;10.10;;
84711;SDS011;74937;44.534;18.684;2024-03-02T09:19:59;14.77;;;8.82;;
84711;SDS011;74937;44.534;18.684;2024-03-02T09:22:26;15.10;;;9.07;;
84711;SDS011;74937;44.534;18.684;2024-03-02T09:24:51;18.42;;;9.77;;
84711;SDS011;74937;44.534;18.684;2024-03-02T09:27:17;17.67;;;9.07;;
84711;SDS011;74937;44.534;18.684;2024-03-02T09:29:43;16.50;;;9.98;;
84711;SDS011;74937;44.534;18.684;2024-03-02T09:32:11;19.35;;;9.85;;
84711;SDS011;74937;44.534;18.684;2024-03-02T09:34:38;17.02;;;9.15;;
84711;SDS011;74937;44.534;18.684;2024-03-02T09:37:04;18.77;;;9.63;;
84711;SDS011;74937;44.534;18.684;2024-03-02T09:39:30;18.10;;;10.20;;
84711;SDS011;74937;44.534;18.684;2024-03-02T09:41:56;18.25;;;8.48;;
84711;SDS011;74937;44.534;18.684;2024-03-02T09:44:23;16.80;;;8.23;;
84711;SDS011;74937;44.534;18.684;2024-03-02T09:46:50;18.95;;;8.52;;
84711;SDS011;74937;44.534;18.684;2024-03-02T09:51:44;15.05;;;6.20;;
84711;SDS011;74937;44.534;18.684;2024-03-02T09:54:12;10.43;;;5.10;;
84711;SDS011;74937;44.534;18.684;2024-03-02T09:56:39;11.27;;;5.35;;
84711;SDS011;74937;44.534;18.684;2024-03-02T10:01:30;13.98;;;5.18;;
84711;SDS011;74937;44.534;18.684;2024-03-02T10:04:00;10.52;;;4.05;;
84711;SDS011;74937;44.534;18.684;2024-03-02T10:06:27;10.45;;;4.82;;
84711;SDS011;74937;44.534;18.684;2024-03-02T10:08:54;9.77;;;4.80;;
84711;SDS011;74937;44.534;18.684;2024-03-02T10:11:27;8.55;;;4.95;;
84711;SDS011;74937;44.534;18.684;2024-03-02T10:14:04;12.40;;;4.38;;
84711;SDS011;74937;44.534;18.684;2024-03-02T10:16:38;8.23;;;4.85;;
84711;SDS011;74937;44.534;18.684;2024-03-02T10:19:18;8.40;;;3.88;;
84711;SDS011;74937;44.534;18.684;2024-03-02T10:21:44;11.20;;;4.47;;
84711;SDS011;74937;44.534;18.684;2024-03-02T10:24:14;9.18;;;3.38;;
84711;SDS011;74937;44.534;18.684;2024-03-02T10:26:41;13.48;;;6.97;;
84711;SDS011;74937;44.534;18.684;2024-03-02T10:29:10;9.38;;;3.97;;
84711;SDS011;74937;44.534;18.684;2024-03-02T10:31:40;7.93;;;4.20;;
84711;SDS011;74937;44.534;18.684;2024-03-02T10:34:09;7.35;;;4.00;;
84711;SDS011;74937;44.534;18.684;2024-03-02T10:36:35;9.35;;;3.55;;
84711;SDS011;74937;44.534;18.684;2024-03-02T10:39:03;8.80;;;3.80;;
84711;SDS011;74937;44.534;18.684;2024-03-02T10:41:33;8.32;;;3.97;;
84711;SDS011;74937;44.534;18.684;2024-03-02T10:44:04;11.32;;;4.30;;
84711;SDS011;74937;44.534;18.684;2024-03-02T10:46:31;7.95;;;3.75;;
84711;SDS011;74937;44.534;18.684;2024-03-02T10:49:00;8.10;;;4.18;;
84711;SDS011;74937;44.534;18.684;2024-03-02T10:51:27;6.90;;;3.58;;
84711;SDS011;74937;44.534;18.684;2024-03-02T10:53:57;7.13;;;3.00;;
84711;SDS011;74937;44.534;18.684;2024-03-02T10:59:06;6.47;;;2.92;;
84711;SDS011;74937;44.534;18.684;2024-03-02T11:01:40;7.88;;;4.07;;
84711;SDS011;74937;44.534;18.684;2024-03-02T11:04:08;6.45;;;3.03;;
84711;SDS011;74937;44.534;18.684;2024-03-02T11:06:34;7.25;;;3.40;;
84711;SDS011;74937;44.534;18.684;2024-03-02T11:09:07;8.05;;;3.72;;
84711;SDS011;74937;44.534;18.684;2024-03-02T11:11:39;6.45;;;3.53;;
84711;SDS011;74937;44.534;18.684;2024-03-02T11:14:11;9.43;;;3.45;;
84711;SDS011;74937;44.534;18.684;2024-03-02T11:16:39;6.47;;;3.03;;
84711;SDS011;74937;44.534;18.684;2024-03-02T11:19:10;7.03;;;2.72;;
84711;SDS011;74937;44.534;18.684;2024-03-02T11:21:38;6.68;;;3.08;;
84711;SDS011;74937;44.534;18.684;2024-03-02T11:26:46;8.32;;;3.25;;
84711;SDS011;74937;44.534;18.684;2024-03-02T11:32:06;6.78;;;3.55;;
84711;SDS011;74937;44.534;18.684;2024-03-02T11:34:40;9.02;;;3.60;;
84711;SDS011;74937;44.534;18.684;2024-03-02T11:37:14;7.43;;;3.67;;
84711;SDS011;74937;44.534;18.684;2024-03-02T11:39:44;7.53;;;2.90;;
84711;SDS011;74937;44.534;18.684;2024-03-02T11:42:11;7.07;;;3.78;;
84711;SDS011;74937;44.534;18.684;2024-03-02T11:44:39;9.23;;;3.80;;
84711;SDS011;74937;44.534;18.684;2024-03-02T11:47:08;8.32;;;3.05;;
84711;SDS011;74937;44.534;18.684;2024-03-02T11:49:36;11.32;;;3.85;;
84711;SDS011;74937;44.534;18.684;2024-03-02T11:52:07;4.93;;;2.65;;
84711;SDS011;74937;44.534;18.684;2024-03-02T11:54:37;9.98;;;3.00;;
84711;SDS011;74937;44.534;18.684;2024-03-02T11:57:20;7.82;;;3.75;;
84711;SDS011;74937;44.534;18.684;2024-03-02T11:59:49;9.27;;;4.50;;
84711;SDS011;74937;44.534;18.684;2024-03-02T12:02:15;8.45;;;4.07;;
84711;SDS011;74937;44.534;18.684;2024-03-02T12:04:45;8.82;;;4.28;;
84711;SDS011;74937;44.534;18.684;2024-03-02T12:07:22;6.32;;;2.70;;
84711;SDS011;74937;44.534;18.684;2024-03-02T12:09:49;6.20;;;3.10;;
84711;SDS011;74937;44.534;18.684;2024-03-02T12:12:24;4.82;;;2.78;;
84711;SDS011;74937;44.534;18.684;2024-03-02T12:14:52;6.55;;;2.80;;
84711;SDS011;74937;44.534;18.684;2024-03-02T12:17:20;8.05;;;3.20;;
84711;SDS011;74937;44.534;18.684;2024-03-02T12:19:46;9.90;;;3.75;;
84711;SDS011;74937;44.534;18.684;2024-03-02T12:22:12;7.05;;;3.00;;
84711;SDS011;74937;44.534;18.684;2024-03-02T12:24:38;9.25;;;3.30;;
84711;SDS011;74937;44.534;18.684;2024-03-02T12:27:07;5.75;;;3.10;;
84711;SDS011;74937;44.534;18.684;2024-03-02T12:29:33;8.10;;;3.40;;
84711;SDS011;74937;44.534;18.684;2024-03-02T12:31:59;9.07;;;3.15;;
84711;SDS011;74937;44.534;18.684;2024-03-02T12:34:27;8.98;;;3.38;;
84711;SDS011;74937;44.534;18.684;2024-03-02T12:36:53;8.38;;;3.35;;
84711;SDS011;74937;44.534;18.684;2024-03-02T12:39:19;10.13;;;3.50;;
84711;SDS011;74937;44.534;18.684;2024-03-02T12:41:46;6.22;;;2.88;;
84711;SDS011;74937;44.534;18.684;2024-03-02T12:44:12;6.43;;;2.85;;
84711;SDS011;74937;44.534;18.684;2024-03-02T12:46:38;10.32;;;3.05;;
84711;SDS011;74937;44.534;18.684;2024-03-02T12:49:10;10.02;;;3.25;;
84711;SDS011;74937;44.534;18.684;2024-03-02T12:51:37;7.15;;;3.53;;
84711;SDS011;74937;44.534;18.684;2024-03-02T12:54:08;8.15;;;3.25;;
84711;SDS011;74937;44.534;18.684;2024-03-02T12:56:38;6.47;;;3.00;;
84711;SDS011;74937;44.534;18.684;2024-03-02T12:59:16;6.90;;;3.53;;
84711;SDS011;74937;44.534;18.684;2024-03-02T13:02:16;8.13;;;4.35;;
84711;SDS011;74937;44.534;18.684;2024-03-02T13:04:42;6.68;;;3.65;;
84711;SDS011;74937;44.534;18.684;2024-03-02T13:07:07;6.38;;;3.17;;
84711;SDS011;74937;44.534;18.684;2024-03-02T13:09:33;7.43;;;3.35;;
84711;SDS011;74937;44.534;18.684;2024-03-02T13:14:25;7.53;;;2.75;;
84711;SDS011;74937;44.534;18.684;2024-03-02T13:16:51;6.65;;;3.20;;
84711;SDS011;74937;44.534;18.684;2024-03-02T13:19:18;5.93;;;2.92;;
84711;SDS011;74937;44.534;18.684;2024-03-02T13:21:46;5.40;;;3.05;;
84711;SDS011;74937;44.534;18.684;2024-03-02T13:24:12;10.50;;;3.97;;
84711;SDS011;74937;44.534;18.684;2024-03-02T13:26:38;7.85;;;3.35;;
84711;SDS011;74937;44.534;18.684;2024-03-02T13:29:05;7.03;;;3.75;;
84711;SDS011;74937;44.534;18.684;2024-03-02T13:31:31;8.02;;;3.33;;
84711;SDS011;74937;44.534;18.684;2024-03-02T13:33:56;7.15;;;2.90;;
84711;SDS011;74937;44.534;18.684;2024-03-02T13:36:22;11.18;;;3.42;;
84711;SDS011;74937;44.534;18.684;2024-03-02T13:38:49;8.73;;;3.72;;
84711;SDS011;74937;44.534;18.684;2024-03-02T13:41:14;7.13;;;3.67;;
84711;SDS011;74937;44.534;18.684;2024-03-02T13:43:40;5.25;;;3.45;;
84711;SDS011;74937;44.534;18.684;2024-03-02T13:46:06;7.10;;;3.17;;
84711;SDS011;74937;44.534;18.684;2024-03-02T13:48:32;4.93;;;2.95;;
84711;SDS011;74937;44.534;18.684;2024-03-02T13:50:57;7.25;;;3.53;;
84711;SDS011;74937;44.534;18.684;2024-03-02T13:53:23;8.65;;;3.67;;
84711;SDS011;74937;44.534;18.684;2024-03-02T13:55:48;7.50;;;4.00;;
84711;SDS011;74937;44.534;18.684;2024-03-02T13:58:14;7.30;;;3.20;;
84711;SDS011;74937;44.534;18.684;2024-03-02T14:00:40;10.38;;;4.25;;
84711;SDS011;74937;44.534;18.684;2024-03-02T14:03:06;7.75;;;3.97;;
84711;SDS011;74937;44.534;18.684;2024-03-02T14:05:32;9.38;;;3.70;;
84711;SDS011;74937;44.534;18.684;2024-03-02T14:07:58;6.90;;;3.63;;
84711;SDS011;74937;44.534;18.684;2024-03-02T14:10:26;8.60;;;4.00;;
84711;SDS011;74937;44.534;18.684;2024-03-02T14:15:21;6.90;;;4.53;;
84711;SDS011;74937;44.534;18.684;2024-03-02T14:17:47;6.88;;;3.78;;
84711;SDS011;74937;44.534;18.684;2024-03-02T14:22:46;6.75;;;3.33;;
84711;SDS011;74937;44.534;18.684;2024-03-02T14:25:11;9.15;;;4.50;;
84711;SDS011;74937;44.534;18.684;2024-03-02T14:27:37;7.28;;;3.60;;
84711;SDS011;74937;44.534;18.684;2024-03-02T14:30:03;6.70;;;3.58;;
84711;SDS011;74937;44.534;18.684;2024-03-02T14:32:30;6.50;;;4.00;;
84711;SDS011;74937;44.534;18.684;2024-03-02T14:34:57;8.25;;;5.07;;
84711;SDS011;74937;44.534;18.684;2024-03-02T14:37:26;9.43;;;3.63;;
84711;SDS011;74937;44.534;18.684;2024-03-02T14:39:52;9.35;;;4.20;;
84711;SDS011;74937;44.534;18.684;2024-03-02T14:42:18;12.50;;;5.15;;
84711;SDS011;74937;44.534;18.684;2024-03-02T14:44:43;9.18;;;5.78;;
84711;SDS011;74937;44.534;18.684;2024-03-02T14:47:09;10.18;;;5.68;;